Time;durP1;ratioP1;P1;durP2;ratioP2;P2;SDS_P1;SDS_P2;PMS_P1;PMS_P2;Temp;Humidity;BMP_temperature;BMP_pressure;BME280_temperature;BME280_humidity;BME280_pressure;Samples;Min_cycle;Max_cycle;Signal;HPM_P1;HPM_P2
2021/04/10 00:00:19;;;;;;;14.30;11.80;;;10.40;99.90;;;;;;2520076;23;20016;-70
2021/04/10 00:01:21;;;;;;;17.58;12.70;;;10.30;99.90;;;;;;2520305;23;20016;-70
2021/04/10 00:02:22;;;;;;;13.85;11.32;;;10.40;99.90;;;;;;2519763;23;20094;-70
2021/04/10 00:03:23;;;;;;;18.13;13.25;;;10.40;99.90;;;;;;2520440;23;20545;-70
2021/04/10 00:04:23;;;;;;;13.73;12.32;;;10.40;99.90;;;;;;2519985;23;20034;-70
2021/04/10 00:05:25;;;;;;;15.00;12.45;;;10.40;99.90;;;;;;2520429;23;20387;-70
2021/04/10 00:06:26;;;;;;;14.20;10.13;;;10.40;99.90;;;;;;2520253;23;20009;-70
2021/04/10 00:07:26;;;;;;;14.77;12.63;;;10.40;99.90;;;;;;2519434;23;20003;-70
2021/04/10 00:08:27;;;;;;;15.70;12.95;;;10.40;99.90;;;;;;2519401;23;20003;-70
2021/04/10 00:09:28;;;;;;;17.13;12.70;;;10.40;99.90;;;;;;2519258;23;20089;-70
2021/04/10 00:10:30;;;;;;;14.38;12.90;;;10.40;99.90;;;;;;2519304;23;20007;-70
2021/04/10 00:11:30;;;;;;;14.70;13.20;;;10.40;99.90;;;;;;2519228;23;20003;-71
2021/04/10 00:12:31;;;;;;;15.30;13.70;;;10.40;99.90;;;;;;2518892;23;19999;-71
2021/04/10 00:13:32;;;;;;;17.15;13.90;;;10.40;99.90;;;;;;2519677;23;20329;-71
2021/04/10 00:14:32;;;;;;;17.85;12.95;;;10.40;99.90;;;;;;2519124;23;20464;-71
2021/04/10 00:15:33;;;;;;;17.83;13.57;;;10.40;99.90;;;;;;2519454;23;20464;-71
2021/04/10 00:16:35;;;;;;;21.08;13.43;;;10.40;99.90;;;;;;2519386;23;20002;-71
2021/04/10 00:17:36;;;;;;;17.00;13.85;;;10.40;99.90;;;;;;2519440;23;20417;-71
2021/04/10 00:18:38;;;;;;;14.90;13.27;;;10.40;99.90;;;;;;2519435;23;20006;-71
2021/04/10 00:19:38;;;;;;;18.52;13.68;;;10.40;99.90;;;;;;2520117;23;20056;-71
2021/04/10 00:20:39;;;;;;;20.35;14.43;;;10.40;99.90;;;;;;2519221;23;20068;-71
2021/04/10 00:21:40;;;;;;;16.45;14.10;;;10.40;99.90;;;;;;2519511;23;20006;-72
2021/04/10 00:22:40;;;;;;;18.38;14.23;;;10.30;99.90;;;;;;2519712;23;20092;-71
2021/04/10 00:23:44;;;;;;;17.50;14.18;;;10.40;99.90;;;;;;2520360;23;20476;-71
2021/04/10 00:24:44;;;;;;;16.45;14.10;;;10.30;99.90;;;;;;2519945;23;20478;-71
2021/04/10 00:25:45;;;;;;;16.13;13.43;;;10.30;99.90;;;;;;2520343;23;20308;-71
2021/04/10 00:26:45;;;;;;;17.42;14.38;;;10.30;99.90;;;;;;2520025;23;20073;-71
2021/04/10 00:27:46;;;;;;;18.75;14.02;;;10.20;99.90;;;;;;2520163;23;20006;-71
2021/04/10 00:28:47;;;;;;;16.48;14.07;;;10.30;99.90;;;;;;2520023;23;20026;-71
2021/04/10 00:29:47;;;;;;;17.35;14.20;;;10.20;99.90;;;;;;2520350;23;20052;-71
2021/04/10 00:30:48;;;;;;;16.88;14.80;;;10.20;99.90;;;;;;2520025;23;20009;-71
2021/04/10 00:31:48;;;;;;;17.63;13.73;;;10.20;99.90;;;;;;2520282;23;20009;-71
2021/04/10 00:32:49;;;;;;;17.85;15.27;;;10.20;99.90;;;;;;2519795;23;20025;-71
2021/04/10 00:33:49;;;;;;;17.95;15.05;;;10.30;99.90;;;;;;2520059;23;20029;-71
2021/04/10 00:34:50;;;;;;;15.82;13.48;;;10.20;99.90;;;;;;2520334;23;19998;-71
2021/04/10 00:35:50;;;;;;;20.45;15.00;;;10.30;99.90;;;;;;2519939;23;20025;-71
2021/04/10 00:36:51;;;;;;;19.45;14.23;;;10.30;99.90;;;;;;2520099;23;20014;-71
2021/04/10 00:37:51;;;;;;;17.70;14.63;;;10.30;99.90;;;;;;2519056;23;20010;-71
2021/04/10 00:38:52;;;;;;;21.70;15.38;;;10.30;99.90;;;;;;2519166;23;20003;-71
2021/04/10 00:39:53;;;;;;;17.85;14.95;;;10.30;99.90;;;;;;2520117;23;20037;-71
2021/04/10 00:40:53;;;;;;;16.77;14.90;;;10.30;99.90;;;;;;2520277;23;20003;-71
2021/04/10 00:41:54;;;;;;;16.08;14.43;;;10.30;99.90;;;;;;2518766;23;20007;-71
2021/04/10 00:42:54;;;;;;;20.05;14.40;;;10.40;99.90;;;;;;2518912;23;20022;-71
2021/04/10 00:43:55;;;;;;;16.13;14.02;;;10.40;99.90;;;;;;2517778;23;20322;-71
2021/04/10 00:44:55;;;;;;;22.35;14.88;;;10.40;99.90;;;;;;2518301;23;20015;-71
2021/04/10 00:45:56;;;;;;;18.02;15.68;;;10.40;99.90;;;;;;2519923;23;20006;-71
2021/04/10 00:46:56;;;;;;;18.58;14.80;;;10.40;99.90;;;;;;2519255;23;20490;-71
2021/04/10 00:47:57;;;;;;;18.10;14.40;;;10.40;99.90;;;;;;2519192;23;20009;-71
2021/04/10 00:48:57;;;;;;;19.08;15.13;;;10.40;99.90;;;;;;2520184;23;19999;-71
2021/04/10 00:49:58;;;;;;;16.27;14.18;;;10.40;99.90;;;;;;2519091;23;20085;-71
2021/04/10 00:50:58;;;;;;;19.67;15.18;;;10.40;99.90;;;;;;2519457;23;20009;-71
2021/04/10 00:52:01;;;;;;;17.08;14.98;;;10.40;99.90;;;;;;2519978;23;20331;-71
2021/04/10 00:53:02;;;;;;;17.08;14.73;;;10.40;99.90;;;;;;2519958;23;20064;-71
2021/04/10 00:54:03;;;;;;;18.05;15.55;;;10.40;99.90;;;;;;2519833;23;20075;-71
2021/04/10 00:55:09;;;;;;;17.30;15.27;;;10.40;99.90;;;;;;2520312;23;20002;-71
2021/04/10 00:56:10;;;;;;;20.05;14.05;;;10.40;99.90;;;;;;2519970;23;20300;-71
2021/04/10 00:57:10;;;;;;;18.45;14.25;;;10.40;99.90;;;;;;2520298;23;20003;-71
2021/04/10 00:58:11;;;;;;;18.33;15.25;;;10.40;99.90;;;;;;2520055;23;20006;-71
2021/04/10 00:59:12;;;;;;;14.30;11.65;;;10.40;99.90;;;;;;2520184;23;20402;-71
2021/04/10 01:00:13;;;;;;;16.70;14.32;;;10.50;99.90;;;;;;2520071;23;20014;-71
2021/04/10 01:01:14;;;;;;;16.60;13.85;;;10.50;99.90;;;;;;2520129;23;20467;-71
2021/04/10 01:02:15;;;;;;;15.32;13.18;;;10.50;99.90;;;;;;2518725;23;20007;-71
2021/04/10 01:03:16;;;;;;;17.98;14.65;;;10.50;99.90;;;;;;2519395;23;20017;-71
2021/04/10 01:04:17;;;;;;;15.80;14.10;;;10.50;99.90;;;;;;2519768;23;20049;-71
2021/04/10 01:05:17;;;;;;;16.08;13.38;;;10.50;99.90;;;;;;2520471;23;20470;-71
2021/04/10 01:06:18;;;;;;;18.55;15.70;;;10.50;99.90;;;;;;2519899;23;20333;-71
2021/04/10 01:07:19;;;;;;;15.82;13.85;;;10.50;99.90;;;;;;2520255;23;20003;-71
2021/04/10 01:08:20;;;;;;;14.32;12.90;;;10.50;99.90;;;;;;2520076;23;19999;-71
2021/04/10 01:09:20;;;;;;;15.43;13.07;;;10.50;99.90;;;;;;2520326;23;20064;-71
2021/04/10 01:10:21;;;;;;;19.65;15.38;;;10.50;99.90;;;;;;2519190;23;20354;-71
2021/04/10 01:11:47;;;;;;;18.33;14.45;;;10.50;99.90;;;;;;2519349;23;20003;-71
2021/04/10 01:13:21;;;;;;;19.65;14.82;;;10.50;99.90;;;;;;2518965;23;20096;-71
2021/04/10 01:14:46;;;;;;;18.83;14.32;;;10.50;99.90;;;;;;2548751;23;20336;-71
2021/04/10 01:16:00;;;;;;;18.25;13.25;;;10.50;99.90;;;;;;2520351;23;20002;-71
2021/04/10 01:17:09;;;;;;;17.15;12.48;;;10.40;99.90;;;;;;2520102;23;20289;-71
2021/04/10 01:18:45;;;;;;;18.38;12.00;;;10.40;99.90;;;;;;2520260;23;20014;-71
2021/04/10 01:20:09;;;;;;;15.32;13.20;;;10.40;99.90;;;;;;2520186;23;20583;-71
2021/04/10 01:21:23;;;;;;;17.42;15.52;;;10.40;99.90;;;;;;2520139;23;20009;-71
2021/04/10 01:23:01;;;;;;;16.13;14.45;;;10.40;99.90;;;;;;2520106;23;20031;-71
2021/04/10 01:24:27;;;;;;;17.80;13.63;;;10.40;99.90;;;;;;2520189;23;20074;-71
2021/04/10 01:25:41;;;;;;;18.27;15.13;;;10.30;99.90;;;;;;2520235;23;20029;-71
2021/04/10 01:27:04;;;;;;;14.50;12.75;;;10.30;99.90;;;;;;2520220;23;20372;-71
2021/04/10 01:28:16;;;;;;;14.93;12.98;;;10.30;99.90;;;;;;2520142;23;20003;-71
2021/04/10 01:29:18;;;;;;;12.32;10.88;;;10.30;99.90;;;;;;2519983;23;20002;-71
2021/04/10 01:30:20;;;;;;;16.42;14.52;;;10.30;99.90;;;;;;2520233;23;20011;-70
2021/04/10 01:31:31;;;;;;;16.17;13.95;;;10.30;99.90;;;;;;2519076;23;20066;-71
2021/04/10 01:32:35;;;;;;;15.57;13.95;;;10.30;99.90;;;;;;2519269;23;20090;-71
2021/04/10 01:33:42;;;;;;;17.90;14.73;;;10.30;99.90;;;;;;2519710;23;20056;-71
2021/04/10 01:34:48;;;;;;;17.13;15.35;;;10.30;99.90;;;;;;2520194;23;20460;-71
2021/04/10 01:35:55;;;;;;;18.15;15.85;;;10.30;99.90;;;;;;2520018;23;20006;-71
2021/04/10 01:37:02;;;;;;;21.30;15.95;;;10.40;99.90;;;;;;2520323;23;20423;-71
2021/04/10 01:38:07;;;;;;;16.20;13.98;;;10.40;99.90;;;;;;2519081;23;20064;-71
2021/04/10 01:39:10;;;;;;;16.08;14.07;;;10.40;99.90;;;;;;2519515;23;20006;-71
2021/04/10 01:40:13;;;;;;;17.98;14.93;;;10.40;99.90;;;;;;2519997;23;20073;-71
2021/04/10 01:41:16;;;;;;;18.25;15.75;;;10.40;99.90;;;;;;2519939;23;19998;-71
2021/04/10 01:42:21;;;;;;;17.67;13.80;;;10.30;99.90;;;;;;2519554;23;20009;-70
2021/04/10 01:43:22;;;;;;;18.77;13.38;;;10.40;99.90;;;;;;2520258;23;20009;-70
2021/04/10 01:44:23;;;;;;;19.80;17.17;;;10.30;99.90;;;;;;2519888;23;20006;-71
2021/04/10 01:45:26;;;;;;;18.45;13.93;;;10.30;99.90;;;;;;2520091;23;20011;-70
2021/04/10 01:46:29;;;;;;;21.55;17.33;;;10.40;99.90;;;;;;2520026;23;20002;-70
2021/04/10 01:47:33;;;;;;;21.52;17.35;;;10.40;99.90;;;;;;2520090;23;20295;-70
2021/04/10 01:48:36;;;;;;;18.27;16.35;;;10.40;99.90;;;;;;2519888;23;20002;-70
2021/04/10 01:49:38;;;;;;;17.05;15.35;;;10.40;99.90;;;;;;2520178;23;20415;-71
2021/04/10 01:50:39;;;;;;;17.80;15.95;;;10.40;99.90;;;;;;2519883;23;20010;-71
2021/04/10 01:51:41;;;;;;;19.00;16.77;;;10.40;99.90;;;;;;2520247;23;20419;-71
2021/04/10 01:52:44;;;;;;;19.00;16.20;;;10.30;99.90;;;;;;2519406;23;20303;-71
2021/04/10 01:53:47;;;;;;;17.92;15.70;;;10.40;99.90;;;;;;2520226;23;20085;-71
2021/04/10 01:54:48;;;;;;;18.02;16.13;;;10.40;99.90;;;;;;2519708;23;20007;-71
2021/04/10 01:55:50;;;;;;;18.40;16.40;;;10.40;99.90;;;;;;2515795;23;20010;-71
2021/04/10 01:56:52;;;;;;;14.40;13.00;;;10.40;99.90;;;;;;2519233;23;20053;-71
2021/04/10 01:57:54;;;;;;;17.48;15.20;;;10.40;99.90;;;;;;2519114;23;20014;-71
2021/04/10 01:58:55;;;;;;;19.75;15.65;;;10.30;99.90;;;;;;2520136;23;20137;-70
2021/04/10 01:59:58;;;;;;;15.35;12.63;;;10.40;99.90;;;;;;2519838;23;20006;-70
2021/04/10 02:00:59;;;;;;;19.80;15.02;;;10.40;99.90;;;;;;2519930;23;20057;-70
2021/04/10 02:02:01;;;;;;;17.92;16.13;;;10.30;99.90;;;;;;2519717;23;20014;-71
2021/04/10 02:03:03;;;;;;;18.50;16.23;;;10.40;99.90;;;;;;2519788;23;20394;-71
2021/04/10 02:04:04;;;;;;;17.40;15.57;;;10.40;99.90;;;;;;2519789;23;19999;-70
2021/04/10 02:05:10;;;;;;;21.67;18.50;;;10.40;99.90;;;;;;2519245;23;20086;-71
2021/04/10 02:06:12;;;;;;;17.80;16.02;;;10.40;99.90;;;;;;2519075;23;19998;-71
2021/04/10 02:07:14;;;;;;;18.63;16.73;;;10.40;99.90;;;;;;2519186;23;20007;-71
2021/04/10 02:08:16;;;;;;;22.67;18.83;;;10.40;99.90;;;;;;2507525;23;20003;-70
2021/04/10 02:09:20;;;;;;;22.33;19.17;;;10.30;99.90;;;;;;2519493;23;20053;-70
2021/04/10 02:10:25;;;;;;;25.08;19.70;;;10.40;99.90;;;;;;2519589;23;20007;-71
2021/04/10 02:11:27;;;;;;;22.52;18.25;;;10.40;99.90;;;;;;2520184;23;20044;-71
2021/04/10 02:12:28;;;;;;;23.75;18.83;;;10.40;99.90;;;;;;2519546;23;20033;-70
2021/04/10 02:13:30;;;;;;;22.30;19.52;;;10.30;99.90;;;;;;2520152;23;20006;-70
2021/04/10 02:14:32;;;;;;;22.40;18.50;;;10.40;99.90;;;;;;2519542;23;20085;-70
2021/04/10 02:15:33;;;;;;;20.45;18.25;;;10.40;99.90;;;;;;2520139;23;20030;-70
2021/04/10 02:16:35;;;;;;;22.27;18.98;;;10.40;99.90;;;;;;2519749;23;20002;-70
2021/04/10 02:17:36;;;;;;;23.00;18.80;;;10.40;99.90;;;;;;2520149;23;20010;-70
2021/04/10 02:18:37;;;;;;;19.95;17.90;;;10.40;99.90;;;;;;2518928;23;20034;-70
2021/04/10 02:19:37;;;;;;;24.55;17.95;;;10.40;99.90;;;;;;2520168;23;20029;-70
2021/04/10 02:20:38;;;;;;;23.20;18.92;;;10.40;99.90;;;;;;2519900;23;20473;-71
2021/04/10 02:21:39;;;;;;;19.92;17.75;;;10.30;99.90;;;;;;2520105;23;20013;-70
2021/04/10 02:22:45;;;;;;;23.58;18.25;;;10.30;99.90;;;;;;2519447;23;20048;-70
2021/04/10 02:23:45;;;;;;;21.10;18.15;;;10.30;99.90;;;;;;2520252;23;20006;-70
2021/04/10 02:24:46;;;;;;;21.15;18.15;;;10.30;99.90;;;;;;2519863;23;20112;-70
2021/04/10 02:25:46;;;;;;;20.20;17.83;;;10.30;99.90;;;;;;2520048;23;20430;-70
2021/04/10 02:26:47;;;;;;;23.30;18.83;;;10.30;99.90;;;;;;2519760;23;20018;-70
2021/04/10 02:27:48;;;;;;;18.08;15.35;;;10.30;99.90;;;;;;2520178;23;20132;-70
2021/04/10 02:28:49;;;;;;;19.33;17.33;;;10.30;99.90;;;;;;2519796;23;20044;-70
2021/04/10 02:29:50;;;;;;;20.80;18.20;;;10.30;99.90;;;;;;2520077;23;20036;-70
2021/04/10 02:30:50;;;;;;;19.67;17.55;;;10.30;99.90;;;;;;2519926;23;19994;-70
2021/04/10 02:31:57;;;;;;;18.85;16.83;;;10.30;99.90;;;;;;2519823;23;20003;-70
2021/04/10 02:33:09;;;;;;;20.08;16.77;;;10.30;99.90;;;;;;2519781;23;20003;-70
2021/04/10 02:34:14;;;;;;;22.00;16.98;;;10.30;99.90;;;;;;2519875;23;20021;-70
2021/04/10 02:35:22;;;;;;;21.40;19.15;;;10.30;99.90;;;;;;2519447;23;20010;-70
2021/04/10 02:36:24;;;;;;;17.65;15.52;;;10.30;99.90;;;;;;2519974;23;20066;-71
2021/04/10 02:37:26;;;;;;;18.60;16.63;;;10.30;99.90;;;;;;2519870;23;20014;-70
2021/04/10 02:38:32;;;;;;;21.60;17.75;;;10.30;99.90;;;;;;2520038;23;20028;-70
2021/04/10 02:39:33;;;;;;;20.85;17.80;;;10.30;99.90;;;;;;2519976;23;20006;-70
2021/04/10 02:40:39;;;;;;;22.67;18.75;;;10.30;99.90;;;;;;2520137;23;20010;-70
2021/04/10 02:41:43;;;;;;;20.25;17.65;;;10.30;99.90;;;;;;2519833;23;20014;-70
2021/04/10 02:42:47;;;;;;;21.52;18.40;;;10.30;99.90;;;;;;2519777;23;20026;-70
2021/04/10 02:44:02;;;;;;;21.40;19.27;;;10.30;99.90;;;;;;2518944;23;20025;-70
2021/04/10 02:45:05;;;;;;;23.27;19.90;;;10.30;99.90;;;;;;2509834;23;20097;-70
2021/04/10 02:46:07;;;;;;;22.42;19.05;;;10.30;99.90;;;;;;2518786;23;19998;-70
2021/04/10 02:47:09;;;;;;;22.33;20.02;;;10.30;99.90;;;;;;2520027;23;20089;-70
2021/04/10 02:48:24;;;;;;;22.02;19.83;;;10.30;99.90;;;;;;2519868;23;20085;-70
2021/04/10 02:49:30;;;;;;;24.27;20.45;;;10.30;99.90;;;;;;2520009;23;20021;-70
2021/04/10 02:50:32;;;;;;;22.92;19.00;;;10.20;99.90;;;;;;2519945;23;20002;-70
2021/04/10 02:51:40;;;;;;;22.27;19.85;;;10.20;99.90;;;;;;2519819;23;19995;-70
2021/04/10 02:52:45;;;;;;;22.52;19.92;;;10.20;99.90;;;;;;2518933;23;20426;-70
2021/04/10 02:53:48;;;;;;;21.27;19.00;;;10.20;99.90;;;;;;2519096;23;20065;-70
2021/04/10 02:54:50;;;;;;;23.27;19.98;;;10.20;99.90;;;;;;2518988;23;20517;-71
2021/04/10 02:55:56;;;;;;;21.55;19.13;;;10.20;99.90;;;;;;2519800;23;20003;-71
2021/04/10 02:57:08;;;;;;;22.23;19.92;;;10.20;99.90;;;;;;2520018;23;19995;-71
2021/04/10 02:58:11;;;;;;;22.77;20.48;;;10.20;99.90;;;;;;2519581;23;20002;-71
2021/04/10 02:59:12;;;;;;;21.08;18.83;;;10.20;99.90;;;;;;2519009;23;20002;-70
2021/04/10 03:00:17;;;;;;;22.67;20.23;;;10.20;99.90;;;;;;2507026;23;20383;-70
2021/04/10 03:01:19;;;;;;;23.30;20.10;;;10.30;99.90;;;;;;2519196;23;19998;-70
2021/04/10 03:02:22;;;;;;;21.50;19.00;;;10.20;99.90;;;;;;2519335;23;20034;-70
2021/04/10 03:03:24;;;;;;;27.73;19.83;;;10.30;99.90;;;;;;2519983;23;20085;-70
2021/04/10 03:04:25;;;;;;;23.55;20.63;;;10.20;99.90;;;;;;2519671;23;20030;-70
2021/04/10 03:05:26;;;;;;;22.65;19.40;;;10.20;99.90;;;;;;2519384;23;20487;-70
2021/04/10 03:06:29;;;;;;;23.65;21.15;;;10.30;99.90;;;;;;2518658;23;20361;-70
2021/04/10 03:07:30;;;;;;;21.10;19.02;;;10.30;99.90;;;;;;2520042;23;20268;-70
2021/04/10 03:08:31;;;;;;;23.90;21.30;;;10.30;99.90;;;;;;2506903;23;20053;-70
2021/04/10 03:09:32;;;;;;;20.65;18.60;;;10.20;99.90;;;;;;2507333;23;20010;-70
2021/04/10 03:10:33;;;;;;;20.17;18.25;;;10.30;99.90;;;;;;2519870;23;20003;-70
2021/04/10 03:11:35;;;;;;;21.20;19.00;;;10.30;99.90;;;;;;2519768;23;20366;-70
2021/04/10 03:12:36;;;;;;;22.98;18.80;;;10.30;99.90;;;;;;2519228;23;20476;-70
2021/04/10 03:13:38;;;;;;;21.63;19.33;;;10.20;99.90;;;;;;2519822;23;20368;-70
2021/04/10 03:14:39;;;;;;;22.15;19.95;;;10.30;99.90;;;;;;2519793;23;20002;-70
2021/04/10 03:15:41;;;;;;;22.55;20.20;;;10.30;99.90;;;;;;2519742;23;20477;-70
2021/04/10 03:16:43;;;;;;;24.90;21.10;;;10.30;99.90;;;;;;2518857;23;20518;-70
2021/04/10 03:17:44;;;;;;;22.20;19.95;;;10.30;99.90;;;;;;2519030;23;20300;-70
2021/04/10 03:18:49;;;;;;;25.65;20.50;;;10.30;99.90;;;;;;2519848;23;20406;-70
2021/04/10 03:19:50;;;;;;;22.83;20.38;;;10.30;99.90;;;;;;2519905;23;20002;-70
2021/04/10 03:20:51;;;;;;;24.45;21.85;;;10.30;99.90;;;;;;2519812;23;20006;-70
2021/04/10 03:21:52;;;;;;;25.63;21.63;;;10.30;99.90;;;;;;2518737;23;20002;-70
2021/04/10 03:22:52;;;;;;;22.88;20.45;;;10.20;99.90;;;;;;2518788;23;20018;-70
2021/04/10 03:23:53;;;;;;;23.08;20.63;;;10.30;99.90;;;;;;2519706;23;19995;-70
2021/04/10 03:24:54;;;;;;;23.23;20.83;;;10.30;99.90;;;;;;2518967;23;20029;-70
2021/04/10 03:25:57;;;;;;;22.90;20.45;;;10.30;99.90;;;;;;2518818;23;20085;-70
2021/04/10 03:26:59;;;;;;;23.17;20.75;;;10.20;99.90;;;;;;2518961;23;20073;-70
2021/04/10 03:28:00;;;;;;;28.42;23.25;;;10.30;99.90;;;;;;2519672;23;20311;-70
2021/04/10 03:29:03;;;;;;;27.00;24.08;;;10.20;99.90;;;;;;2519865;23;19998;-70
2021/04/10 03:30:05;;;;;;;26.33;23.58;;;10.20;99.90;;;;;;2519557;23;20022;-71
2021/04/10 03:31:07;;;;;;;27.13;24.13;;;10.20;99.90;;;;;;2519782;23;20007;-71
2021/04/10 03:32:08;;;;;;;25.10;22.50;;;10.20;99.90;;;;;;2519464;23;20034;-71
2021/04/10 03:33:09;;;;;;;26.02;22.40;;;10.10;99.90;;;;;;2519888;23;20006;-71
2021/04/10 03:34:09;;;;;;;23.85;21.25;;;10.10;99.90;;;;;;2519584;23;20081;-70
2021/04/10 03:35:12;;;;;;;22.90;20.50;;;10.10;99.90;;;;;;2519877;23;20048;-70
2021/04/10 03:36:14;;;;;;;25.55;21.52;;;10.10;99.90;;;;;;2519063;23;20009;-71
2021/04/10 03:37:14;;;;;;;23.50;21.10;;;10.10;99.90;;;;;;2519071;23;20011;-71
2021/04/10 03:38:15;;;;;;;22.30;20.08;;;10.10;99.90;;;;;;2519502;23;20003;-71
2021/04/10 03:39:16;;;;;;;22.58;20.23;;;10.10;99.90;;;;;;2519171;23;20013;-71
2021/04/10 03:40:16;;;;;;;23.80;20.73;;;10.00;99.90;;;;;;2518874;23;20010;-71
2021/04/10 03:41:18;;;;;;;23.65;21.10;;;10.10;99.90;;;;;;2519118;23;20010;-71
2021/04/10 03:42:25;;;;;;;25.77;21.35;;;10.10;99.90;;;;;;2518330;23;20015;-71
2021/04/10 03:43:26;;;;;;;22.00;19.30;;;10.10;99.90;;;;;;2519216;23;20002;-71
2021/04/10 03:44:26;;;;;;;22.98;20.67;;;10.10;99.90;;;;;;2519550;23;20026;-71
2021/04/10 03:45:27;;;;;;;22.42;20.33;;;10.10;99.90;;;;;;2518755;23;20010;-70
2021/04/10 03:46:27;;;;;;;26.35;21.65;;;10.10;99.90;;;;;;2518774;23;20401;-70
2021/04/10 03:47:28;;;;;;;23.40;20.83;;;10.10;99.90;;;;;;2518909;23;20068;-70
2021/04/10 03:48:29;;;;;;;22.77;20.23;;;10.10;99.90;;;;;;2518816;23;20003;-70
2021/04/10 03:49:29;;;;;;;24.33;19.75;;;10.10;99.90;;;;;;2520003;23;20060;-70
2021/04/10 03:50:30;;;;;;;23.33;20.92;;;10.00;99.90;;;;;;2519527;23;19999;-70
2021/04/10 03:51:31;;;;;;;22.88;20.52;;;10.00;99.90;;;;;;2519878;23;20003;-71
2021/04/10 03:52:32;;;;;;;23.40;20.38;;;10.00;99.90;;;;;;2519347;23;20003;-70
2021/04/10 03:53:32;;;;;;;21.02;19.02;;;10.00;99.90;;;;;;2519791;23;20426;-70
2021/04/10 03:54:33;;;;;;;22.63;19.02;;;9.90;99.90;;;;;;2519617;23;20009;-70
2021/04/10 03:55:33;;;;;;;20.92;18.83;;;10.00;99.90;;;;;;2519647;23;20480;-70
2021/04/10 03:56:35;;;;;;;21.55;19.23;;;10.00;99.90;;;;;;2518394;23;20049;-70
2021/04/10 03:57:35;;;;;;;21.98;19.73;;;9.90;99.90;;;;;;2519044;23;20332;-70
2021/04/10 03:58:36;;;;;;;22.27;19.23;;;10.00;99.90;;;;;;2519545;23;20009;-70
2021/04/10 03:59:37;;;;;;;21.98;19.88;;;9.90;99.90;;;;;;2519742;23;20052;-71
2021/04/10 04:00:37;;;;;;;24.55;19.63;;;10.00;99.90;;;;;;2519491;23;20030;-71
2021/04/10 04:01:38;;;;;;;22.27;19.88;;;9.90;99.90;;;;;;2519913;23;20041;-70
2021/04/10 04:02:39;;;;;;;22.73;20.30;;;10.00;99.90;;;;;;2519278;23;20013;-70
2021/04/10 04:03:39;;;;;;;20.98;18.67;;;9.90;99.90;;;;;;2519798;23;19995;-70
2021/04/10 04:04:40;;;;;;;22.05;19.88;;;9.90;99.90;;;;;;2519966;23;20002;-70
2021/04/10 04:05:40;;;;;;;21.95;19.67;;;9.90;99.90;;;;;;2520030;23;20026;-70
2021/04/10 04:06:41;;;;;;;21.35;19.20;;;9.90;99.90;;;;;;2520128;23;20109;-70
2021/04/10 04:07:41;;;;;;;28.98;20.45;;;9.90;99.90;;;;;;2520150;23;20044;-70
2021/04/10 04:08:42;;;;;;;21.60;19.35;;;9.90;99.90;;;;;;2520385;23;19995;-70
2021/04/10 04:09:42;;;;;;;25.80;20.73;;;9.90;99.90;;;;;;2519975;23;20026;-70
2021/04/10 04:10:43;;;;;;;24.42;20.67;;;9.90;99.90;;;;;;2520318;23;19998;-70
2021/04/10 04:11:43;;;;;;;22.95;20.65;;;9.90;99.90;;;;;;2520176;23;20468;-70
2021/04/10 04:12:44;;;;;;;22.67;20.38;;;9.90;99.90;;;;;;2519699;23;20014;-70
2021/04/10 04:13:44;;;;;;;22.80;20.50;;;9.90;99.90;;;;;;2520009;23;20017;-70
2021/04/10 04:14:45;;;;;;;21.92;19.73;;;9.90;99.90;;;;;;2520364;23;20010;-70
2021/04/10 04:15:46;;;;;;;22.98;20.70;;;9.90;99.90;;;;;;2519922;23;20060;-70
2021/04/10 04:16:46;;;;;;;22.63;20.27;;;9.90;99.90;;;;;;2520077;23;20017;-70
2021/04/10 04:17:47;;;;;;;27.38;20.25;;;9.90;99.90;;;;;;2520127;23;20002;-70
2021/04/10 04:18:47;;;;;;;22.63;20.27;;;9.90;99.90;;;;;;2520139;23;20006;-70
2021/04/10 04:19:48;;;;;;;22.63;20.23;;;9.90;99.90;;;;;;2519325;23;20064;-70
2021/04/10 04:20:48;;;;;;;23.60;21.00;;;9.90;99.90;;;;;;2519577;23;20056;-70
2021/04/10 04:21:49;;;;;;;22.98;20.77;;;9.90;99.90;;;;;;2519943;23;20418;-70
2021/04/10 04:22:50;;;;;;;22.75;19.98;;;9.90;99.90;;;;;;2519972;23;20003;-70
2021/04/10 04:23:51;;;;;;;22.50;19.92;;;9.90;99.90;;;;;;2520138;23;19995;-70
2021/04/10 04:24:51;;;;;;;23.60;20.58;;;9.80;99.90;;;;;;2520218;23;20319;-70
2021/04/10 04:25:52;;;;;;;23.52;20.95;;;9.80;99.90;;;;;;2519939;23;20374;-70
2021/04/10 04:26:52;;;;;;;22.15;19.77;;;9.80;99.90;;;;;;2520132;23;20002;-70
2021/04/10 04:27:53;;;;;;;28.88;22.08;;;9.80;99.90;;;;;;2520054;23;20018;-70
2021/04/10 04:28:53;;;;;;;23.52;21.13;;;9.80;99.90;;;;;;2520184;23;20002;-70
2021/04/10 04:29:54;;;;;;;24.05;21.13;;;9.80;99.90;;;;;;2519930;23;20021;-70
2021/04/10 04:30:57;;;;;;;24.60;22.02;;;9.80;99.90;;;;;;2519993;23;20018;-70
2021/04/10 04:31:57;;;;;;;24.63;21.90;;;9.80;99.90;;;;;;2520022;23;20013;-70
2021/04/10 04:32:58;;;;;;;23.77;21.25;;;9.80;99.90;;;;;;2520046;23;20002;-70
2021/04/10 04:33:59;;;;;;;23.45;20.92;;;9.70;99.90;;;;;;2519768;23;20319;-70
2021/04/10 04:34:59;;;;;;;24.63;21.98;;;9.70;99.90;;;;;;2519890;23;20006;-70
2021/04/10 04:36:00;;;;;;;24.20;21.10;;;9.70;99.90;;;;;;2519979;23;20007;-70
2021/04/10 04:37:01;;;;;;;25.42;22.05;;;9.70;99.90;;;;;;2520181;23;20430;-70
2021/04/10 04:38:02;;;;;;;23.02;20.58;;;9.70;99.90;;;;;;2520131;23;20082;-70
2021/04/10 04:39:03;;;;;;;24.63;22.15;;;9.70;99.90;;;;;;2519263;23;20009;-70
2021/04/10 04:40:05;;;;;;;23.90;21.45;;;9.80;99.90;;;;;;2519264;23;20014;-70
2021/04/10 04:41:06;;;;;;;23.38;20.80;;;9.70;99.90;;;;;;2520014;23;20025;-70
2021/04/10 04:42:07;;;;;;;23.02;20.75;;;9.80;99.90;;;;;;2519078;23;20096;-71
2021/04/10 04:43:07;;;;;;;24.30;21.95;;;9.80;99.90;;;;;;2519211;23;20011;-71
2021/04/10 04:44:08;;;;;;;23.77;21.27;;;9.80;99.90;;;;;;2520254;23;20007;-71
2021/04/10 04:45:09;;;;;;;27.08;22.48;;;9.80;99.90;;;;;;2519928;23;20014;-71
2021/04/10 04:46:11;;;;;;;25.58;22.02;;;9.70;99.90;;;;;;2520190;23;20005;-71
2021/04/10 04:47:12;;;;;;;24.45;21.90;;;9.70;99.90;;;;;;2519080;23;20092;-70
2021/04/10 04:48:12;;;;;;;23.67;20.85;;;9.70;99.90;;;;;;2519505;23;20002;-70
2021/04/10 04:49:13;;;;;;;25.08;21.30;;;9.70;99.90;;;;;;2520069;23;20280;-71
2021/04/10 04:50:13;;;;;;;22.95;20.55;;;9.70;99.90;;;;;;2520320;23;19998;-70
2021/04/10 04:51:17;;;;;;;25.77;23.00;;;9.70;99.90;;;;;;2519300;23;20442;-70
2021/04/10 04:52:18;;;;;;;22.75;20.20;;;9.70;99.90;;;;;;2519271;23;20513;-70
2021/04/10 04:53:19;;;;;;;23.35;20.77;;;9.70;99.90;;;;;;2520072;23;20014;-70
2021/04/10 04:54:19;;;;;;;25.10;22.48;;;9.70;99.90;;;;;;2519553;23;19999;-70
2021/04/10 04:55:20;;;;;;;27.08;21.50;;;9.70;99.90;;;;;;2507194;23;20061;-70
2021/04/10 04:56:21;;;;;;;26.38;23.65;;;9.70;99.90;;;;;;2519476;23;20006;-70
2021/04/10 04:57:21;;;;;;;27.77;22.80;;;9.70;99.90;;;;;;2519917;23;20053;-70
2021/04/10 04:58:22;;;;;;;26.30;23.70;;;9.70;99.90;;;;;;2520267;23;20013;-70
2021/04/10 04:59:22;;;;;;;25.98;23.25;;;9.70;99.90;;;;;;2519810;23;20002;-70
2021/04/10 05:00:23;;;;;;;25.63;23.15;;;9.70;99.90;;;;;;2520321;23;20013;-70
2021/04/10 05:01:24;;;;;;;25.58;22.95;;;9.70;99.90;;;;;;2520137;23;20081;-70
2021/04/10 05:02:24;;;;;;;24.02;21.70;;;9.70;99.90;;;;;;2519909;23;20010;-70
2021/04/10 05:03:25;;;;;;;24.48;21.80;;;9.70;99.90;;;;;;2520111;23;20003;-70
2021/04/10 05:04:26;;;;;;;28.60;23.70;;;9.60;99.90;;;;;;2520338;23;20077;-70
2021/04/10 05:05:26;;;;;;;24.92;22.48;;;9.70;99.90;;;;;;2520182;23;20025;-70
2021/04/10 05:06:27;;;;;;;27.58;22.85;;;9.70;99.90;;;;;;2520234;23;19998;-70
2021/04/10 05:07:27;;;;;;;24.23;21.73;;;9.70;99.90;;;;;;2519931;23;20008;-70
2021/04/10 05:08:28;;;;;;;26.02;23.00;;;9.70;99.90;;;;;;2520345;23;20017;-70
2021/04/10 05:09:28;;;;;;;26.63;23.33;;;9.70;99.90;;;;;;2519899;23;20013;-70
2021/04/10 05:10:29;;;;;;;25.95;23.15;;;9.70;99.90;;;;;;2520277;23;20081;-70
2021/04/10 05:11:29;;;;;;;25.83;23.02;;;9.70;99.90;;;;;;2519914;23;19999;-70
2021/04/10 05:12:30;;;;;;;25.35;22.85;;;9.60;99.90;;;;;;2519837;23;19994;-70
2021/04/10 05:13:30;;;;;;;26.85;23.73;;;9.60;99.90;;;;;;2520040;23;20026;-70
2021/04/10 05:14:31;;;;;;;28.30;24.20;;;9.60;99.90;;;;;;2520108;23;19999;-70
2021/04/10 05:15:31;;;;;;;24.58;22.13;;;9.60;99.90;;;;;;2519630;23;20006;-70
2021/04/10 05:16:32;;;;;;;26.55;23.58;;;9.60;99.90;;;;;;2520055;23;20105;-70
2021/04/10 05:17:32;;;;;;;26.42;22.85;;;9.60;99.90;;;;;;2519974;23;20402;-70
2021/04/10 05:18:33;;;;;;;26.20;23.10;;;9.60;99.90;;;;;;2520018;23;20030;-70